createdAt,value
2022-08-19T00:04:38.640Z,21.10
2022-08-19T00:09:40.454Z,21.20
2022-08-19T00:14:42.537Z,21.40
2022-08-19T00:19:44.416Z,21.50
2022-08-19T00:24:49.597Z,21.30
2022-08-19T00:29:52.992Z,21.30
2022-08-19T00:34:54.819Z,21.20
2022-08-19T00:39:56.948Z,21.30
2022-08-19T00:44:58.988Z,21.10
2022-08-19T00:50:01.350Z,21.10
2022-08-19T00:55:13.379Z,21.20
2022-08-19T01:00:18.361Z,21.20
2022-08-19T01:05:28.444Z,21.00
2022-08-19T01:10:36.693Z,20.80
2022-08-19T01:15:56.084Z,20.80
2022-08-19T01:21:02.893Z,20.70
2022-08-19T01:26:05.554Z,20.80
2022-08-19T01:31:12.548Z,20.70
2022-08-19T01:36:40.123Z,20.70
2022-08-19T01:41:42.034Z,20.90
2022-08-19T01:46:45.437Z,20.70
2022-08-19T01:51:48.077Z,20.60
2022-08-19T01:56:55.983Z,20.40
2022-08-19T02:01:58.286Z,20.30
2022-08-19T02:07:00.159Z,20.20
2022-08-19T02:12:02.207Z,20.00
2022-08-19T02:17:04.917Z,20.00
2022-08-19T02:22:09.711Z,19.80
2022-08-19T02:27:11.568Z,19.70
2022-08-19T02:32:14.419Z,19.70
2022-08-19T02:37:43.822Z,19.70
2022-08-19T02:42:46.903Z,19.70
2022-08-19T02:47:51.982Z,19.60
2022-08-19T02:52:53.917Z,19.70
2022-08-19T02:57:57.971Z,19.70
2022-08-19T03:03:01.124Z,19.70
2022-08-19T03:08:04.492Z,19.80
2022-08-19T03:13:06.285Z,19.80
2022-08-19T03:18:08.342Z,19.90
2022-08-19T03:23:11.525Z,20.00
2022-08-19T03:28:16.157Z,19.90
2022-08-19T03:33:18.175Z,19.90
2022-08-19T03:38:30.732Z,19.80
2022-08-19T03:43:32.641Z,19.90
2022-08-19T03:48:34.955Z,19.80
2022-08-19T03:53:36.789Z,19.80
2022-08-19T03:58:38.652Z,19.90
2022-08-19T04:03:41.244Z,19.90
2022-08-19T04:08:44.346Z,19.90
2022-08-19T04:13:46.161Z,20.10
2022-08-19T04:18:48.831Z,20.10
2022-08-19T04:23:50.999Z,20.10
2022-08-19T04:28:55.289Z,19.90
2022-08-19T04:33:59.085Z,19.90
2022-08-19T04:39:08.939Z,19.90
2022-08-19T04:44:11.208Z,20.00
2022-08-19T04:49:13.864Z,20.10
2022-08-19T04:54:28.766Z,20.10
2022-08-19T04:59:40.459Z,20.10
2022-08-19T05:04:42.280Z,20.20
2022-08-19T05:09:58.051Z,20.20
2022-08-19T05:15:01.822Z,20.30
2022-08-19T05:20:24.964Z,20.30
2022-08-19T05:25:26.809Z,20.40
2022-08-19T05:30:46.100Z,20.30
2022-08-19T05:35:50.310Z,20.40
2022-08-19T05:40:52.211Z,20.50
2022-08-19T05:45:54.007Z,20.60
2022-08-19T05:50:55.854Z,20.70
2022-08-19T05:55:57.654Z,20.80
2022-08-19T06:01:05.432Z,20.80
2022-08-19T06:06:09.582Z,20.70
2022-08-19T06:11:17.695Z,20.90
2022-08-19T06:16:23.078Z,20.90
2022-08-19T06:21:28.264Z,21.00
2022-08-19T06:26:30.258Z,21.20
2022-08-19T06:31:34.284Z,21.20
2022-08-19T06:36:45.233Z,21.30
2022-08-19T06:41:52.429Z,21.50
2022-08-19T06:46:56.900Z,21.50
2022-08-19T06:51:59.715Z,21.60
2022-08-19T06:57:04.128Z,21.80
2022-08-19T07:02:07.567Z,21.90
2022-08-19T07:07:19.994Z,22.00
2022-08-19T07:12:22.806Z,22.10
2022-08-19T07:17:24.722Z,22.20
2022-08-19T07:22:26.998Z,22.20
2022-08-19T07:27:28.787Z,22.40
2022-08-19T07:32:31.774Z,22.40
2022-08-19T07:37:36.095Z,22.40
2022-08-19T07:42:38.250Z,22.50
2022-08-19T07:47:48.093Z,22.70
2022-08-19T07:52:55.475Z,22.50
2022-08-19T07:57:59.235Z,22.40
2022-08-19T08:03:01.033Z,22.50
2022-08-19T08:08:21.271Z,22.50
2022-08-19T08:13:30.021Z,22.50
2022-08-19T08:18:32.206Z,22.70
2022-08-19T08:23:36.446Z,22.80
2022-08-19T08:28:41.869Z,22.80
2022-08-19T08:33:49.903Z,23.00
2022-08-19T08:43:54.053Z,22.90
2022-08-19T08:49:09.788Z,23.20
2022-08-19T08:54:18.738Z,23.20
2022-08-19T08:59:30.152Z,23.50
2022-08-19T09:04:31.930Z,23.40
2022-08-19T09:09:42.098Z,23.40
2022-08-19T09:15:01.015Z,23.50
2022-08-19T09:20:11.937Z,23.40
2022-08-19T09:25:24.603Z,23.40
2022-08-19T09:30:31.993Z,23.60
2022-08-19T09:35:49.933Z,23.40
2022-08-19T09:40:55.210Z,23.40
2022-08-19T09:45:58.290Z,23.60
2022-08-19T09:51:09.071Z,23.80
2022-08-19T09:56:14.600Z,23.60
2022-08-19T10:01:22.142Z,24.00
2022-08-19T10:06:46.201Z,24.10
2022-08-19T10:11:54.864Z,24.00
2022-08-19T10:16:57.538Z,23.90
2022-08-19T10:22:04.714Z,24.00
2022-08-19T10:27:06.775Z,24.00
2022-08-19T10:32:11.039Z,23.70
2022-08-19T10:37:14.406Z,23.70
2022-08-19T10:42:19.498Z,23.60
2022-08-19T10:47:24.441Z,23.80
2022-08-19T10:52:38.710Z,24.00
2022-08-19T10:58:01.261Z,24.20
2022-08-19T11:03:03.862Z,24.00
2022-08-19T11:08:22.137Z,24.00
2022-08-19T11:13:25.989Z,24.10
2022-08-19T11:18:27.840Z,24.20
2022-08-19T11:23:29.594Z,24.20
2022-08-19T11:28:31.413Z,24.00
2022-08-19T11:33:33.694Z,24.10
2022-08-19T11:38:42.303Z,24.00
2022-08-19T11:43:46.033Z,23.70
2022-08-19T11:48:48.990Z,23.70
2022-08-19T11:53:51.649Z,23.70
2022-08-19T11:58:54.732Z,23.90
2022-08-19T12:03:57.764Z,23.70
2022-08-19T12:09:06.850Z,23.70
2022-08-19T12:14:14.349Z,23.50
2022-08-19T12:19:16.766Z,23.70
2022-08-19T12:24:25.479Z,23.70
2022-08-19T12:29:30.370Z,23.90
2022-08-19T12:34:33.277Z,24.10
2022-08-19T12:39:40.579Z,24.00
2022-08-19T12:44:43.811Z,24.10
2022-08-19T12:49:54.041Z,23.90
2022-08-19T12:54:58.140Z,24.00
2022-08-19T13:00:08.769Z,23.90
2022-08-19T13:05:13.156Z,24.10
2022-08-19T13:10:17.960Z,24.70
2022-08-19T13:15:23.806Z,24.90
2022-08-19T13:20:27.580Z,25.00
2022-08-19T13:25:29.452Z,25.00
2022-08-19T13:30:50.084Z,25.30
2022-08-19T13:35:57.907Z,25.10
2022-08-19T13:41:10.947Z,25.00
2022-08-19T13:46:14.936Z,25.20
2022-08-19T13:51:18.735Z,25.30
2022-08-19T13:56:25.405Z,25.20
2022-08-19T14:01:28.536Z,25.10
2022-08-19T14:06:30.472Z,25.20
2022-08-19T14:11:32.575Z,25.10
2022-08-19T14:16:34.591Z,24.90
2022-08-19T14:21:41.417Z,25.00
2022-08-19T14:26:43.576Z,24.90
2022-08-19T14:31:45.433Z,25.00
2022-08-19T14:36:49.937Z,25.00
2022-08-19T14:41:51.787Z,24.60
2022-08-19T14:46:54.247Z,24.30
2022-08-19T14:51:57.539Z,24.50
2022-08-19T14:56:59.570Z,24.20
2022-08-19T15:02:33.710Z,24.00
2022-08-19T15:07:23.338Z,24.20
2022-08-19T15:12:30.084Z,24.00
2022-08-19T15:17:43.413Z,24.10
2022-08-19T15:22:48.473Z,24.10
2022-08-19T15:27:51.176Z,23.90
2022-08-19T15:32:55.719Z,23.80
2022-08-19T15:37:57.817Z,23.60
2022-08-19T15:42:59.633Z,23.60
2022-08-19T15:48:03.218Z,23.50
2022-08-19T15:53:08.598Z,23.30
2022-08-19T15:58:32.485Z,23.30
2022-08-19T16:03:52.806Z,23.30
2022-08-19T16:09:00.049Z,23.10
2022-08-19T16:14:02.637Z,23.00
2022-08-19T16:19:11.973Z,23.00
2022-08-19T16:24:15.886Z,23.00
2022-08-19T16:29:33.474Z,23.20
2022-08-19T16:34:37.924Z,23.40
2022-08-19T16:39:44.354Z,23.40
2022-08-19T16:44:49.370Z,23.30
2022-08-19T16:49:54.042Z,23.30
2022-08-19T16:54:57.001Z,23.20
2022-08-19T16:59:59.031Z,23.20
2022-08-19T17:05:00.894Z,23.00
2022-08-19T17:10:05.439Z,22.90
2022-08-19T17:15:11.029Z,22.90
2022-08-19T17:20:12.938Z,22.90
2022-08-19T17:25:15.806Z,22.70
2022-08-19T17:30:18.810Z,22.70
2022-08-19T17:35:24.216Z,22.70
2022-08-19T17:40:26.787Z,22.60
2022-08-19T17:45:31.942Z,22.50
2022-08-19T17:50:35.309Z,22.50
2022-08-19T17:55:37.382Z,22.20
2022-08-19T18:00:39.596Z,22.10
2022-08-19T18:05:56.998Z,21.90
2022-08-19T18:11:00.183Z,21.80
2022-08-19T18:16:03.513Z,21.70
2022-08-19T18:21:05.756Z,21.70
2022-08-19T18:26:08.033Z,21.70
2022-08-19T18:31:09.842Z,21.80
2022-08-19T18:36:12.228Z,21.60
2022-08-19T18:41:32.756Z,21.70
2022-08-19T18:47:04.245Z,21.80
2022-08-19T18:52:06.111Z,21.80
2022-08-19T18:57:08.307Z,21.70
2022-08-19T19:02:13.638Z,21.70
2022-08-19T19:07:18.275Z,21.70
2022-08-19T19:12:20.263Z,21.60
2022-08-19T19:17:28.214Z,21.60
2022-08-19T19:22:30.111Z,21.50
2022-08-19T19:27:31.935Z,21.60
2022-08-19T19:32:39.126Z,21.70
2022-08-19T19:37:43.314Z,21.70
2022-08-19T19:42:46.877Z,21.70
2022-08-19T19:47:50.059Z,21.60
2022-08-19T19:52:52.105Z,21.40
2022-08-19T19:57:54.888Z,21.40
2022-08-19T20:02:56.779Z,21.40
2022-08-19T20:08:17.146Z,21.50
2022-08-19T20:13:21.675Z,21.50
2022-08-19T20:18:24.406Z,21.50
2022-08-19T20:23:26.678Z,21.40
2022-08-19T20:28:28.610Z,21.40
2022-08-19T20:33:31.366Z,21.40
2022-08-19T20:38:35.006Z,21.40
2022-08-19T20:43:37.809Z,21.40
2022-08-19T20:48:42.188Z,21.40
2022-08-19T20:53:44.911Z,21.30
2022-08-19T20:58:51.846Z,21.30
2022-08-19T21:03:56.291Z,21.30
2022-08-19T21:08:58.081Z,21.30
2022-08-19T21:14:00.675Z,21.30
2022-08-19T21:19:02.553Z,21.20
2022-08-19T21:24:04.950Z,21.20
2022-08-19T21:29:07.061Z,21.20
2022-08-19T21:34:09.185Z,21.20
2022-08-19T21:39:11.047Z,21.20
2022-08-19T21:44:12.860Z,21.10
2022-08-19T21:49:14.613Z,21.00
2022-08-19T21:54:16.382Z,21.00
2022-08-19T21:59:18.339Z,21.10
2022-08-19T22:04:20.531Z,21.00
2022-08-19T22:09:22.326Z,21.10
2022-08-19T22:14:24.161Z,21.10
2022-08-19T22:19:26.317Z,21.00
2022-08-19T22:24:28.266Z,21.10
2022-08-19T22:29:33.703Z,21.00
2022-08-19T22:34:35.858Z,21.10
2022-08-19T22:39:37.820Z,21.10
2022-08-19T22:44:39.652Z,21.10
2022-08-19T22:49:41.420Z,21.10
2022-08-19T22:54:49.160Z,21.10
2022-08-19T22:59:52.603Z,21.10
2022-08-19T23:04:55.961Z,21.10
2022-08-19T23:09:57.964Z,21.10
2022-08-19T23:15:08.526Z,21.10
2022-08-19T23:20:14.209Z,21.00
2022-08-19T23:25:19.091Z,21.10
2022-08-19T23:30:27.216Z,21.10
2022-08-19T23:35:34.388Z,21.20
2022-08-19T23:40:38.762Z,21.10
2022-08-19T23:45:50.991Z,21.10
2022-08-19T23:50:54.255Z,21.00
2022-08-19T23:55:56.326Z,20.80
